Crystal Falls, MI

6:31 AM CST on December 26, 2014 (GMT -0600)
APRSWXNET Peavy Falls MI US | Change Station
CLOSE
Current Station
Personal Weather Station
Location: Florence, WI
Elevation: 1258 ft
Nearby Weather Stations

Elev 1258 ft 46.00 °N, 88.16 °W | Updated 29 minutes ago

Overcast
Overcast
29 °F
Feels Like 29 °F
N
0
Wind Variable Wind from ENE
Gusts 0.0 mph

Today
High -- | Low -- °F
--% Chance of Precip.
Yesterday
High -- | Low -- °F
Precip. -- in
7:34 AM 4:13 PM
Waxing Crescent, 25% visible
Pressure 29.96 in
Visibility 7.0 miles
Clouds Overcast 1800 ft
Windchill 29 °F
Dew Point 29 °F
Humidity 98%
Rainfall 0.01 in
Snow Depth Not available.
UV 0 out of 12
Pollen .10 out of 12
Air Quality Not available.
Flu Activity Not available.
METAR KIMT 261154Z AUTO 01003KT 7SM OVC018 M01/M02 A2992 RMK AO2 SLP145 T10061017 11006 21017 53002

More Conditions Fewer Conditions

Pressure 29.96 in
Visibility 7.0 miles
Clouds Overcast 1800 ft
Windchill 29 °F
Dew Point 29 °F
Humidity 98%
Rainfall 0.01 in
Snow Depth Not available.
UV 0 out of 12
Pollen .10 out of 12
Air Quality Not available.
Flu Activity Not available.
METAR KIMT 261154Z AUTO 01003KT 7SM OVC018 M01/M02 A2992 RMK AO2 SLP145 T10061017 11006 21017 53002

More Conditions Fewer Conditions

10-Day Weather Forecast

Almanac

Astronomy

Dec. 26, 2014 Rise Set
Actual Time
Civil Twilight
Nautical Twilight
Astronomical Twilight
Moon
Length of Visible Light
Length of Day
Tomorrow will be .
, % of the Moon is Illuminated

Today's Extremes

State Highs State Lows

Community

WunderPhotos

Upload Photos

1,780,586 photos uploaded!

WunderBlogs® & News

Nearby

Air Quality

  Air Quality AQ Index Pollutant
Not available.

Snow Depth

Station Depth Elevation

Earthquake Activity

City Distance Mag. Time & Date
Minimum magnitude displayed is 2.5.

Coastal Water Temperatures

Place Temperature

Nearby Weather Stations